Time;durP1;ratioP1;P1;durP2;ratioP2;P2;SDS_P1;SDS_P2;PMS_P1;PMS_P2;Temp;Humidity;BMP_temperature;BMP_pressure;BME280_temperature;BME280_humidity;BME280_pressure;Samples;Min_cycle;Max_cycle;Signal;HPM_P1;HPM_P2
2023/09/16 00:01:28;;;;;;;21.38;13.80;;;;;;;27.04;nan;98006.66;5027119;28;20375;-66
2023/09/16 00:03:58;;;;;;;16.33;11.10;;;;;;;27.14;nan;98011.78;5026575;28;20048;-66
2023/09/16 00:06:27;;;;;;;15.60;10.48;;;;;;;27.17;nan;98020.09;5027150;28;20080;-66
2023/09/16 00:08:56;;;;;;;15.32;10.43;;;;;;;27.37;nan;98016.00;5007375;28;20046;-66
2023/09/16 00:11:26;;;;;;;17.10;10.93;;;;;;;27.37;nan;98017.91;5022493;28;20041;-66
2023/09/16 00:13:55;;;;;;;14.73;10.82;;;;;;;27.30;nan;98018.41;5026676;28;20049;-66
2023/09/16 00:16:24;;;;;;;18.73;11.43;;;;;;;27.27;nan;98019.00;5007074;28;20461;-66
2023/09/16 00:18:53;;;;;;;13.52;10.65;;;;;;;27.25;nan;98021.25;5026840;28;20053;-66
2023/09/16 00:21:23;;;;;;;16.38;12.13;;;;;;;27.25;nan;98018.53;5026004;28;20480;-66
2023/09/16 00:23:52;;;;;;;22.13;13.02;;;;;;;27.26;nan;98029.06;5026820;28;20073;-66
2023/09/16 00:26:21;;;;;;;22.98;15.48;;;;;;;27.14;nan;98028.09;5026589;28;20103;-65
2023/09/16 00:28:51;;;;;;;20.33;16.00;;;;;;;27.11;nan;98031.47;5026918;28;20049;-67
2023/09/16 00:31:21;;;;;;;20.15;15.10;;;;;;;27.11;nan;98026.03;5024104;28;20715;-66
2023/09/16 00:33:50;;;;;;;23.63;16.02;;;;;;;27.18;nan;98027.16;5026621;28;20705;-66
2023/09/16 00:36:19;;;;;;;22.77;16.45;;;;;;;27.35;nan;98029.09;5025132;28;20519;-67
2023/09/16 00:38:49;;;;;;;22.45;16.83;;;;;;;27.30;nan;98021.13;5024873;28;20049;-66
2023/09/16 00:41:18;;;;;;;22.73;17.05;;;;;;;27.14;nan;98031.63;5024968;28;20058;-66
2023/09/16 00:43:48;;;;;;;19.63;16.40;;;;;;;27.16;nan;98028.59;5025517;28;20057;-66
2023/09/16 00:46:17;;;;;;;21.27;17.33;;;;;;;27.25;nan;98034.84;5026368;28;20053;-66
2023/09/16 00:48:47;;;;;;;21.15;16.10;;;;;;;27.15;nan;98041.38;5026042;28;20060;-66
2023/09/16 00:51:17;;;;;;;23.45;17.15;;;;;;;27.18;nan;98034.50;5020345;28;20064;-65
2023/09/16 00:53:47;;;;;;;24.40;17.23;;;;;;;27.28;nan;98042.38;5025047;28;20658;-66
2023/09/16 00:56:17;;;;;;;26.70;17.05;;;;;;;27.37;nan;98031.50;5024099;28;20119;-66
2023/09/16 00:58:47;;;;;;;24.90;17.25;;;;;;;27.38;nan;98033.13;5025491;28;20477;-67
2023/09/16 01:01:18;;;;;;;22.80;17.10;;;;;;;27.43;nan;98032.97;5007602;28;20064;-66
2023/09/16 01:03:49;;;;;;;20.15;16.00;;;;;;;27.42;nan;98034.88;5026399;28;20946;-66
2023/09/16 01:06:20;;;;;;;22.80;16.58;;;;;;;27.51;nan;98038.44;5008815;28;20073;-66
2023/09/16 01:08:50;;;;;;;21.48;15.70;;;;;;;27.18;nan;98039.94;5025847;28;20072;-67
2023/09/16 01:11:19;;;;;;;22.73;16.35;;;;;;;27.12;nan;98041.22;5024466;28;20065;-67
2023/09/16 01:13:50;;;;;;;19.15;15.38;;;;;;;27.27;nan;98040.75;5026066;28;20046;-66
2023/09/16 01:16:44;;;;;;;22.83;14.80;;;;;;;27.41;nan;98043.34;5024224;28;20156;-67
2023/09/16 01:19:19;;;;;;;19.67;14.43;;;;;;;27.33;nan;98044.94;5025053;28;20083;-67
2023/09/16 01:21:49;;;;;;;19.52;14.30;;;;;;;27.27;nan;98048.91;5026100;28;20069;-66
2023/09/16 01:24:20;;;;;;;19.33;13.45;;;;;;;27.32;nan;98062.38;5025398;28;20049;-67
2023/09/16 01:26:49;;;;;;;18.63;13.90;;;;;;;27.34;nan;98062.06;5025430;28;20057;-67
2023/09/16 01:29:20;;;;;;;22.35;14.25;;;;;;;27.41;nan;98060.47;5024204;28;20425;-67
2023/09/16 01:31:50;;;;;;;18.42;14.18;;;;;;;27.32;nan;98058.84;5025224;28;20045;-66
2023/09/16 01:34:38;;;;;;;17.00;12.95;;;;;;;27.40;nan;98072.47;5023479;28;20100;-67
2023/09/16 01:37:13;;;;;;;17.90;13.48;;;;;;;27.42;nan;98074.88;5023855;28;20107;-67
2023/09/16 01:39:48;;;;;;;21.35;13.30;;;;;;;27.26;nan;98077.25;5025483;28;20053;-67
2023/09/16 01:42:18;;;;;;;22.02;13.88;;;;;;;27.33;nan;98083.03;5024407;28;20467;-67
2023/09/16 01:44:53;;;;;;;17.73;14.50;;;;;;;27.52;nan;98083.56;5007648;28;20547;-66
2023/09/16 01:47:22;;;;;;;18.45;13.43;;;;;;;27.79;nan;98082.50;5024872;28;20045;-66
2023/09/16 01:49:52;;;;;;;19.92;13.98;;;;;;;28.02;nan;98081.19;5024195;28;20063;-66
2023/09/16 01:52:21;;;;;;;18.20;13.32;;;;;;;28.16;nan;98081.03;5024741;28;20077;-66
2023/09/16 01:54:50;;;;;;;16.58;12.90;;;;;;;27.80;nan;98075.91;5025072;28;20151;-66
2023/09/16 01:57:19;;;;;;;16.38;12.52;;;;;;;28.04;nan;98084.41;5022927;28;20430;-66
2023/09/16 01:59:49;;;;;;;16.90;12.23;;;;;;;27.87;nan;98095.28;5023135;28;20056;-66
2023/09/16 02:02:19;;;;;;;17.50;11.48;;;;;;;28.04;nan;98105.38;5011379;28;20543;-67
2023/09/16 02:04:48;;;;;;;18.45;11.70;;;;;;;28.00;nan;98109.88;5024222;28;20049;-66
2023/09/16 02:07:18;;;;;;;14.07;10.95;;;;;;;28.27;nan;98120.47;5023821;28;20080;-67
2023/09/16 02:09:47;;;;;;;14.75;11.27;;;;;;;27.97;nan;98110.50;5024195;28;20072;-67
2023/09/16 02:12:17;;;;;;;16.75;11.77;;;;;;;28.20;nan;98119.31;5024521;28;20046;-67
2023/09/16 02:14:49;;;;;;;15.02;11.73;;;;;;;28.30;nan;98113.56;5024291;28;20045;-66
2023/09/16 02:17:19;;;;;;;18.23;12.00;;;;;;;28.34;nan;98120.75;5021350;28;20054;-66
2023/09/16 02:19:51;;;;;;;15.55;11.80;;;;;;;28.72;nan;98133.72;5004999;28;20158;-67
2023/09/16 02:22:22;;;;;;;19.85;11.52;;;;;;;28.83;nan;98134.97;5022995;28;20152;-67
2023/09/16 02:24:52;;;;;;;14.52;10.85;;;;;;;29.06;nan;98139.06;5040173;28;20056;-66
2023/09/16 02:27:21;;;;;;;17.67;10.75;;;;;;;29.16;nan;98138.72;5006338;28;20080;-66
2023/09/16 02:29:52;;;;;;;13.55;9.70;;;;;;;29.18;nan;98155.53;5023640;28;20132;-66
2023/09/16 02:32:22;;;;;;;12.82;9.35;;;;;;;28.88;nan;98162.06;5020585;28;20696;-66
2023/09/16 02:34:51;;;;;;;13.23;9.75;;;;;;;28.73;nan;98168.81;5023076;28;20056;-66
2023/09/16 02:37:23;;;;;;;15.15;10.57;;;;;;;28.59;nan;98170.88;5023058;28;20739;-66
2023/09/16 02:39:53;;;;;;;14.73;9.75;;;;;;;28.79;nan;98178.44;5006505;28;20071;-66
2023/09/16 02:42:22;;;;;;;17.33;12.30;;;;;;;28.77;nan;98180.66;5021817;28;20057;-66
2023/09/16 02:44:52;;;;;;;16.70;11.38;;;;;;;29.05;nan;98172.09;5028203;28;20057;-66
2023/09/16 02:47:21;;;;;;;14.63;10.32;;;;;;;29.17;nan;98181.19;5010385;28;20049;-66
2023/09/16 02:49:51;;;;;;;15.85;10.30;;;;;;;29.42;nan;98177.63;5010725;28;20056;-66
2023/09/16 02:52:20;;;;;;;15.13;10.68;;;;;;;29.20;nan;98188.75;5010040;28;20053;-66
2023/09/16 02:54:50;;;;;;;18.58;12.80;;;;;;;29.25;nan;98193.22;5008186;28;20061;-66
2023/09/16 02:57:19;;;;;;;25.55;14.07;;;;;;;29.33;nan;98198.69;5009940;28;20054;-66
2023/09/16 02:59:49;;;;;;;24.48;16.67;;;;;;;29.45;nan;98197.97;5040253;28;20160;-66
2023/09/16 03:02:18;;;;;;;28.85;20.20;;;;;;;29.51;nan;98188.50;5024480;28;20056;-66
2023/09/16 03:04:48;;;;;;;35.88;24.60;;;;;;;29.62;nan;98192.44;5017429;28;20042;-66
2023/09/16 03:07:17;;;;;;;33.63;23.85;;;;;;;29.69;nan;98202.84;5033656;28;20086;-66
2023/09/16 03:09:46;;;;;;;38.28;25.48;;;;;;;29.94;nan;98210.13;5009682;28;20049;-66
2023/09/16 03:12:34;;;;;;;44.22;32.65;;;;;;;29.92;nan;98215.09;5038540;28;20037;-66
2023/09/16 03:15:05;;;;;;;48.03;38.55;;;;;;;29.93;nan;98215.91;5015617;28;20042;-67
2023/09/16 03:17:34;;;;;;;67.28;47.08;;;;;;;29.74;nan;98225.28;5021201;28;20180;-67
2023/09/16 03:20:04;;;;;;;58.88;44.53;;;;;;;29.72;nan;98237.69;5006213;28;20049;-66
2023/09/16 03:22:34;;;;;;;53.90;42.35;;;;;;;29.65;nan;98240.91;5004798;28;20088;-67
2023/09/16 03:25:04;;;;;;;59.70;44.40;;;;;;;29.63;nan;98253.28;5025788;28;20106;-67
2023/09/16 03:27:33;;;;;;;69.40;51.17;;;;;;;29.47;nan;98258.50;5012301;28;20077;-68
2023/09/16 03:30:04;;;;;;;89.45;70.13;;;;;;;29.32;nan;98269.94;5024703;28;20128;-67
2023/09/16 03:32:33;;;;;;;67.50;51.10;;;;;;;29.20;nan;98267.88;5011009;28;20060;-67
2023/09/16 03:35:03;;;;;;;41.42;30.73;;;;;;;29.07;nan;98257.94;5008113;28;20048;-68
2023/09/16 03:37:33;;;;;;;26.08;21.10;;;;;;;28.99;nan;98259.53;5010254;28;20050;-67
2023/09/16 03:40:05;;;;;;;21.63;17.50;;;;;;;29.08;nan;98251.34;5009311;28;20563;-69
2023/09/16 03:42:35;;;;;;;21.60;14.30;;;;;;;29.30;nan;98245.69;5026262;28;20136;-67
2023/09/16 03:45:20;;;;;;;19.55;12.73;;;;;;;29.55;nan;98240.50;5025319;28;20037;-66
2023/09/16 03:47:57;;;;;;;15.55;12.48;;;;;;;29.71;nan;98244.25;5026907;28;20053;-67
2023/09/16 03:50:27;;;;;;;13.95;11.10;;;;;;;29.76;nan;98244.09;5026284;28;20514;-67
2023/09/16 03:52:57;;;;;;;14.93;11.05;;;;;;;29.71;nan;98249.72;5026637;28;20072;-67
2023/09/16 03:55:26;;;;;;;21.67;11.60;;;;;;;29.75;nan;98240.53;5025121;28;20544;-66
2023/09/16 03:57:56;;;;;;;16.65;12.13;;;;;;;29.63;nan;98228.72;5034762;28;20900;-66
2023/09/16 04:00:25;;;;;;;14.60;11.52;;;;;;;29.83;nan;98226.03;5042094;28;20069;-66
2023/09/16 04:02:55;;;;;;;19.33;13.18;;;;;;;29.92;nan;98226.03;5026499;28;20435;-66
2023/09/16 04:05:25;;;;;;;21.40;13.05;;;;;;;29.87;nan;98226.22;5024759;28;20053;-66
2023/09/16 04:07:54;;;;;;;16.65;11.68;;;;;;;30.16;nan;98230.84;5009764;28;20053;-66
2023/09/16 04:10:24;;;;;;;14.05;11.70;;;;;;;30.15;nan;98226.53;5026234;28;20057;-67
2023/09/16 04:12:53;;;;;;;17.40;12.23;;;;;;;30.13;nan;98213.22;5020280;28;20056;-66
2023/09/16 04:15:22;;;;;;;18.38;13.98;;;;;;;30.29;nan;98214.22;5026424;28;20140;-66
2023/09/16 04:17:52;;;;;;;22.33;14.77;;;;;;;30.34;nan;98214.00;5009526;28;20061;-67
2023/09/16 04:20:24;;;;;;;120.45;23.90;;;;;;;30.16;nan;98204.34;5023227;28;20055;-66
2023/09/16 04:22:54;;;;;;;19.20;15.10;;;;;;;30.55;nan;98205.03;5023514;28;20049;-66
2023/09/16 04:25:24;;;;;;;23.55;17.48;;;;;;;30.54;nan;98198.75;5007288;28;20061;-66
2023/09/16 04:27:54;;;;;;;17.77;13.02;;;;;;;30.26;nan;98201.22;5016879;28;20152;-66
2023/09/16 04:30:24;;;;;;;15.02;12.27;;;;;;;30.65;nan;98204.63;5025048;28;20041;-66
2023/09/16 04:32:55;;;;;;;16.10;11.68;;;;;;;31.08;nan;98199.53;5029636;28;20135;-66
2023/09/16 04:35:26;;;;;;;15.88;11.13;;;;;;;31.36;nan;98193.44;5025707;28;20049;-66
2023/09/16 04:37:55;;;;;;;17.15;11.82;;;;;;;31.30;nan;98195.56;5025683;28;20365;-66
2023/09/16 04:40:24;;;;;;;20.95;15.27;;;;;;;31.28;nan;98208.03;5026871;28;20758;-66
2023/09/16 04:42:54;;;;;;;27.20;20.05;;;;;;;31.06;nan;98207.31;5037374;28;20077;-66
2023/09/16 04:45:23;;;;;;;25.45;19.50;;;;;;;30.82;nan;98204.44;5026100;28;20946;-66
2023/09/16 04:48:09;;;;;;;26.65;16.50;;;;;;;31.36;nan;98198.91;5016422;28;20108;-66
2023/09/16 04:50:41;;;;;;;20.80;16.08;;;;;;;31.30;nan;98192.03;5011635;28;20140;-66
2023/09/16 04:53:10;;;;;;;23.77;16.25;;;;;;;30.96;nan;98188.53;5027930;28;20172;-67
2023/09/16 04:55:42;;;;;;;30.15;17.60;;;;;;;31.52;nan;98184.19;5024349;28;20048;-66
2023/09/16 04:58:11;;;;;;;31.00;18.83;;;;;;;31.88;nan;98186.13;5024675;28;20194;-67
2023/09/16 05:00:41;;;;;;;28.52;18.67;;;;;;;32.21;nan;98179.72;5023794;28;20362;-66
2023/09/16 05:03:12;;;;;;;23.88;16.08;;;;;;;32.38;nan;98176.69;5023559;28;20041;-66
2023/09/16 05:05:42;;;;;;;19.52;12.60;;;;;;;31.78;nan;98178.38;5024149;28;20045;-66
2023/09/16 05:08:11;;;;;;;18.98;12.15;;;;;;;31.25;nan;98175.88;5020401;28;20045;-66
2023/09/16 05:10:40;;;;;;;18.65;12.68;;;;;;;31.60;nan;98175.09;5027531;28;20149;-68
2023/09/16 05:13:10;;;;;;;14.55;11.82;;;;;;;31.88;nan;98179.84;5032298;28;20049;-66
2023/09/16 05:15:40;;;;;;;19.70;10.65;;;;;;;32.09;nan;98178.59;5004972;28;20041;-67
2023/09/16 05:18:09;;;;;;;11.32;9.10;;;;;;;32.46;nan;98184.78;5024567;28;20041;-68
2023/09/16 05:20:38;;;;;;;14.05;8.05;;;;;;;32.64;nan;98182.56;5034947;28;20049;-68
2023/09/16 05:23:10;;;;;;;8.27;6.53;;;;;;;32.84;nan;98183.50;5037754;28;20148;-67
2023/09/16 05:25:48;;;;;;;7.90;6.05;;;;;;;32.69;nan;98173.28;5031587;28;20432;-67
2023/09/16 05:28:22;;;;;;;8.65;5.82;;;;;;;32.87;nan;98180.03;5014545;28;20148;-67
2023/09/16 05:30:57;;;;;;;8.80;7.47;;;;;;;33.26;nan;98173.66;5026327;28;20536;-67
2023/09/16 05:33:27;;;;;;;9.77;7.22;;;;;;;33.56;nan;98168.50;5040202;28;20037;-67
2023/09/16 05:35:56;;;;;;;7.72;6.72;;;;;;;34.14;nan;98163.16;5031698;28;20063;-67
2023/09/16 05:38:25;;;;;;;8.43;7.43;;;;;;;34.09;nan;98174.41;5012203;28;20140;-67
2023/09/16 05:40:56;;;;;;;7.80;6.60;;;;;;;34.91;nan;98174.19;5024719;28;20056;-65
2023/09/16 05:43:25;;;;;;;8.25;6.50;;;;;;;34.43;nan;98181.09;5023711;28;20049;-66
2023/09/16 05:45:54;;;;;;;8.30;6.72;;;;;;;34.23;nan;98172.81;5024741;28;20049;-66
2023/09/16 05:48:25;;;;;;;7.28;6.35;;;;;;;33.93;nan;98181.94;5013111;28;20643;-67
2023/09/16 05:50:58;;;;;;;9.65;6.82;;;;;;;34.31;nan;98175.69;5007368;28;20060;-65
2023/09/16 05:53:32;;;;;;;9.98;6.18;;;;;;;34.41;nan;98175.94;5013393;28;20053;-66
2023/09/16 05:56:06;;;;;;;7.57;6.22;;;;;;;34.03;nan;98176.69;5032499;28;20045;-67
2023/09/16 05:58:40;;;;;;;9.43;6.13;;;;;;;33.60;nan;98176.81;5005291;28;20067;-66
2023/09/16 06:01:10;;;;;;;8.50;6.63;;;;;;;33.45;nan;98172.13;5026519;28;20065;-66
2023/09/16 06:03:40;;;;;;;7.88;6.40;;;;;;;33.65;nan;98163.59;5019131;28;20041;-66
2023/09/16 06:06:11;;;;;;;8.05;7.05;;;;;;;33.41;nan;98172.84;5006010;28;20077;-66
2023/09/16 06:08:44;;;;;;;7.95;6.88;;;;;;;33.23;nan;98160.63;5004631;28;20057;-65
2023/09/16 06:11:14;;;;;;;7.78;6.97;;;;;;;33.46;nan;98158.03;5000730;28;20055;-65
2023/09/16 06:13:43;;;;;;;7.15;6.32;;;;;;;32.81;nan;98157.56;4994568;28;20049;-67
2023/09/16 06:16:13;;;;;;;8.27;6.82;;;;;;;32.95;nan;98146.97;5007609;28;20029;-65
2023/09/16 06:18:44;;;;;;;8.13;6.90;;;;;;;33.22;nan;98144.50;5007005;28;20377;-65
2023/09/16 06:21:17;;;;;;;7.18;6.43;;;;;;;33.67;nan;98146.81;5022321;28;20056;-65
2023/09/16 06:23:47;;;;;;;11.25;6.97;;;;;;;33.63;nan;98132.97;5025040;28;20045;-65
2023/09/16 06:26:16;;;;;;;7.25;6.55;;;;;;;33.65;nan;98144.38;5023095;28;20046;-65
2023/09/16 06:28:46;;;;;;;6.80;6.00;;;;;;;33.61;nan;98135.25;5016611;28;20057;-65
2023/09/16 06:31:15;;;;;;;8.48;6.22;;;;;;;33.80;nan;98145.53;5005700;28;20060;-65
2023/09/16 06:33:51;;;;;;;7.72;6.25;;;;;;;33.73;nan;98131.63;4998151;28;20068;-64
2023/09/16 06:36:20;;;;;;;7.65;6.20;;;;;;;33.83;nan;98123.63;5022267;28;20116;-64
2023/09/16 06:38:50;;;;;;;7.25;6.32;;;;;;;33.70;nan;98132.34;5021663;28;20045;-65
2023/09/16 06:41:21;;;;;;;7.20;6.25;;;;;;;34.01;nan;98129.50;5006033;28;20147;-65
2023/09/16 06:43:50;;;;;;;7.93;6.13;;;;;;;33.58;nan;98125.00;5005142;28;20046;-65
2023/09/16 06:46:20;;;;;;;8.85;6.45;;;;;;;33.59;nan;98126.56;5005380;28;20487;-65
2023/09/16 06:48:49;;;;;;;8.23;6.20;;;;;;;33.18;nan;98110.69;5023711;28;20077;-66
2023/09/16 06:51:19;;;;;;;7.75;6.13;;;;;;;33.02;nan;98115.38;5021498;28;20123;-65
2023/09/16 06:53:48;;;;;;;9.13;6.90;;;;;;;32.75;nan;98103.31;5024913;28;20053;-66
2023/09/16 06:56:18;;;;;;;10.07;7.10;;;;;;;33.17;nan;98095.38;5023804;28;20041;-64
2023/09/16 06:58:47;;;;;;;6.90;6.00;;;;;;;33.44;nan;98096.41;5032514;28;20056;-66
2023/09/16 07:01:17;;;;;;;6.50;5.90;;;;;;;33.60;nan;98100.69;5024299;28;20055;-65
2023/09/16 07:03:46;;;;;;;8.13;6.32;;;;;;;33.73;nan;98093.16;5027603;28;20118;-64
2023/09/16 07:06:15;;;;;;;7.35;6.43;;;;;;;33.51;nan;98097.34;5031175;28;20826;-67
2023/09/16 07:08:45;;;;;;;7.75;6.18;;;;;;;33.46;nan;98096.84;5023804;28;20072;-64
2023/09/16 07:11:15;;;;;;;8.50;6.97;;;;;;;33.59;nan;98090.84;5030297;28;20147;-67
2023/09/16 07:13:44;;;;;;;6.60;5.82;;;;;;;33.63;nan;98091.75;5024610;28;20548;-68
2023/09/16 07:16:15;;;;;;;9.07;6.68;;;;;;;33.48;nan;98087.09;5024439;28;20137;-65
2023/09/16 07:18:44;;;;;;;6.82;6.10;;;;;;;33.61;nan;98094.06;5014288;28;20060;-66
2023/09/16 07:21:13;;;;;;;10.68;5.97;;;;;;;33.37;nan;98080.56;5021407;28;20053;-65
2023/09/16 07:23:43;;;;;;;7.30;6.35;;;;;;;33.63;nan;98083.53;5013374;28;20045;-65
2023/09/16 07:26:13;;;;;;;7.28;6.30;;;;;;;33.62;nan;98065.44;5016079;28;20528;-65
2023/09/16 07:28:43;;;;;;;6.95;6.10;;;;;;;33.69;nan;98065.63;5022075;28;20548;-64
2023/09/16 07:31:12;;;;;;;7.20;6.35;;;;;;;33.86;nan;98066.38;5018365;28;20423;-65
2023/09/16 07:33:41;;;;;;;10.02;6.43;;;;;;;33.87;nan;98065.19;5018129;28;20058;-63
2023/09/16 07:36:27;;;;;;;8.00;6.35;;;;;;;33.92;nan;98059.41;5018364;28;20056;-67
2023/09/16 07:38:57;;;;;;;7.80;6.15;;;;;;;33.86;nan;98056.16;5021565;28;20080;-64
2023/09/16 07:41:26;;;;;;;10.43;6.47;;;;;;;33.62;nan;98059.94;5017901;28;20058;-66
2023/09/16 07:43:56;;;;;;;7.40;6.60;;;;;;;33.64;nan;98049.38;5018373;28;20045;-64
2023/09/16 07:46:26;;;;;;;8.30;6.03;;;;;;;33.62;nan;98045.41;5019144;28;20045;-64
2023/09/16 07:48:55;;;;;;;7.00;6.28;;;;;;;33.55;nan;98037.81;5023361;28;20080;-65
2023/09/16 07:51:24;;;;;;;8.07;6.63;;;;;;;33.84;nan;98037.28;5023163;28;20071;-66
2023/09/16 07:53:54;;;;;;;7.32;6.50;;;;;;;33.69;nan;98034.59;5022106;28;20042;-65
2023/09/16 07:56:23;;;;;;;8.07;6.20;;;;;;;33.61;nan;98028.13;5020314;28;20050;-64
2023/09/16 07:58:53;;;;;;;9.07;6.22;;;;;;;33.70;nan;98023.25;5021141;28;20053;-65
2023/09/16 08:01:23;;;;;;;8.48;6.53;;;;;;;33.39;nan;98013.16;5021615;28;20050;-67
2023/09/16 08:03:52;;;;;;;11.27;6.68;;;;;;;33.32;nan;98014.94;5016696;28;20053;-67
2023/09/16 08:06:22;;;;;;;8.50;6.25;;;;;;;33.46;nan;98008.97;5005408;28;20212;-66
2023/09/16 08:08:51;;;;;;;8.40;6.47;;;;;;;33.62;nan;98010.50;5022549;28;20046;-65
2023/09/16 08:11:20;;;;;;;8.43;7.57;;;;;;;33.71;nan;97997.38;5022658;28;20448;-64
2023/09/16 08:13:51;;;;;;;8.82;6.68;;;;;;;33.62;nan;97985.78;5015882;28;20088;-65
2023/09/16 08:16:20;;;;;;;7.05;6.28;;;;;;;33.38;nan;97978.59;5028502;28;20041;-65
2023/09/16 08:18:50;;;;;;;8.88;6.70;;;;;;;33.63;nan;97968.16;5020328;28;20049;-65
2023/09/16 08:21:19;;;;;;;9.98;6.80;;;;;;;33.69;nan;97963.16;5015777;28;20053;-65
2023/09/16 08:23:48;;;;;;;7.68;6.90;;;;;;;33.71;nan;97969.91;5016780;28;20554;-65
2023/09/16 08:26:18;;;;;;;10.00;6.85;;;;;;;33.84;nan;97965.84;5016560;28;20128;-66
2023/09/16 08:28:47;;;;;;;9.13;6.65;;;;;;;33.83;nan;97958.75;5030873;28;20637;-67
2023/09/16 08:31:17;;;;;;;8.85;6.70;;;;;;;33.87;nan;97952.53;5021384;28;20042;-67
2023/09/16 08:33:50;;;;;;;6.93;6.28;;;;;;;33.93;nan;97946.38;5019302;28;20135;-66
2023/09/16 08:36:21;;;;;;;8.05;6.90;;;;;;;34.06;nan;97941.50;5025511;28;20056;-66
2023/09/16 08:38:51;;;;;;;8.13;7.00;;;;;;;34.02;nan;97943.41;5025450;28;20049;-67
2023/09/16 08:41:33;;;;;;;9.85;8.23;;;;;;;33.85;nan;97936.44;5021791;28;20048;-66
2023/09/16 08:44:06;;;;;;;11.50;7.72;;;;;;;33.68;nan;97929.41;5030078;28;20147;-67
2023/09/16 08:46:41;;;;;;;8.80;7.90;;;;;;;33.62;nan;97917.13;5019280;28;20060;-66
2023/09/16 08:49:15;;;;;;;12.02;7.38;;;;;;;33.60;nan;97911.19;4989187;28;20087;-69
2023/09/16 08:51:47;;;;;;;9.57;8.27;;;;;;;33.61;nan;97900.97;5023704;28;20056;-67
2023/09/16 08:54:21;;;;;;;8.82;7.68;;;;;;;33.71;nan;97900.44;5015175;28;20179;-67
2023/09/16 08:56:55;;;;;;;12.05;8.00;;;;;;;33.51;nan;97896.88;5022025;28;20140;-67
2023/09/16 08:59:25;;;;;;;9.00;8.10;;;;;;;33.67;nan;97889.38;5020802;28;20164;-68
2023/09/16 09:01:54;;;;;;;9.10;8.20;;;;;;;33.67;nan;97881.16;5026696;28;20766;-67
2023/09/16 09:04:42;;;;;;;10.60;8.38;;;;;;;33.70;nan;97876.88;5024166;28;20050;-67
2023/09/16 09:07:13;;;;;;;10.18;9.07;;;;;;;33.45;nan;97881.88;5024900;28;20049;-67
2023/09/16 09:09:42;;;;;;;9.70;8.70;;;;;;;33.62;nan;97875.13;5032873;28;20435;-67
2023/09/16 09:12:12;;;;;;;9.70;8.20;;;;;;;33.75;nan;97869.13;5024051;28;20049;-67
2023/09/16 09:14:43;;;;;;;9.43;8.38;;;;;;;33.70;nan;97861.19;5019915;28;20045;-66
2023/09/16 09:17:13;;;;;;;10.50;9.10;;;;;;;33.67;nan;97859.16;5019828;28;20087;-67
2023/09/16 09:19:43;;;;;;;10.13;9.13;;;;;;;33.63;nan;97861.03;5017229;28;20130;-66
2023/09/16 09:22:13;;;;;;;12.15;9.50;;;;;;;33.70;nan;97860.38;5020804;28;20054;-67
2023/09/16 09:24:43;;;;;;;11.40;9.45;;;;;;;33.67;nan;97855.63;5017223;28;20045;-66
2023/09/16 09:27:12;;;;;;;11.75;8.80;;;;;;;33.52;nan;97853.72;5030814;28;20034;-67
2023/09/16 09:29:41;;;;;;;12.35;8.73;;;;;;;33.44;nan;97844.56;5025089;28;20049;-67
2023/09/16 09:32:11;;;;;;;10.63;8.70;;;;;;;33.61;nan;97841.34;5020152;28;20748;-67
2023/09/16 09:34:40;;;;;;;10.25;9.02;;;;;;;33.64;nan;97843.38;5020665;28;20073;-68
2023/09/16 09:37:16;;;;;;;10.85;9.48;;;;;;;33.70;nan;97832.91;5030439;28;20471;-67
2023/09/16 09:39:46;;;;;;;11.60;9.77;;;;;;;33.69;nan;97836.81;5020304;28;20725;-68
2023/09/16 09:42:22;;;;;;;15.13;9.35;;;;;;;33.59;nan;97838.16;5020793;28;20148;-69
2023/09/16 09:45:02;;;;;;;10.20;9.07;;;;;;;33.70;nan;97832.91;5024065;28;20057;-67
2023/09/16 09:47:32;;;;;;;10.98;9.23;;;;;;;33.64;nan;97828.84;5020730;28;20049;-66
2023/09/16 09:50:03;;;;;;;11.18;8.77;;;;;;;33.62;nan;97826.47;5020136;28;20049;-70
2023/09/16 09:52:34;;;;;;;10.25;9.10;;;;;;;33.55;nan;97829.06;5003650;28;20795;-67
2023/09/16 09:55:04;;;;;;;12.77;9.38;;;;;;;33.54;nan;97824.75;5014703;28;21193;-67
2023/09/16 09:57:34;;;;;;;12.40;9.05;;;;;;;33.49;nan;97821.50;5021016;28;20045;-67
2023/09/16 10:00:04;;;;;;;11.07;8.48;;;;;;;33.53;nan;97822.38;5023675;28;20735;-68
2023/09/16 10:02:40;;;;;;;11.48;9.48;;;;;;;33.53;nan;97811.38;4995447;28;20092;-66
2023/09/16 10:05:15;;;;;;;11.05;8.98;;;;;;;33.29;nan;97813.28;5017664;28;20041;-67
2023/09/16 10:07:45;;;;;;;12.23;9.65;;;;;;;33.35;nan;97811.84;5024247;28;20099;-67
2023/09/16 10:10:23;;;;;;;9.60;8.70;;;;;;;33.46;nan;97814.78;5021004;28;20042;-66
2023/09/16 10:12:57;;;;;;;11.10;8.40;;;;;;;33.41;nan;97815.88;5017903;28;20132;-68
2023/09/16 10:15:33;;;;;;;11.10;8.70;;;;;;;33.39;nan;97809.97;5019022;28;21094;-67
2023/09/16 10:18:04;;;;;;;9.68;7.75;;;;;;;33.38;nan;97807.56;5020789;28;20041;-67
2023/09/16 10:20:38;;;;;;;10.05;7.18;;;;;;;33.45;nan;97799.47;5016446;28;20079;-66
2023/09/16 10:23:08;;;;;;;8.90;8.00;;;;;;;33.50;nan;97807.44;5019757;28;20076;-66
2023/09/16 10:25:38;;;;;;;11.05;8.55;;;;;;;33.54;nan;97808.28;5019293;28;20053;-67
2023/09/16 10:28:09;;;;;;;8.55;7.25;;;;;;;33.47;nan;97808.13;5017582;28;20095;-67
2023/09/16 10:30:39;;;;;;;12.73;8.13;;;;;;;33.50;nan;97812.13;5003827;28;20052;-65
2023/09/16 10:33:10;;;;;;;9.88;8.60;;;;;;;33.43;nan;97810.03;5020723;28;20038;-68
2023/09/16 10:35:41;;;;;;;8.70;7.82;;;;;;;33.21;nan;97808.81;5015793;28;20132;-69
2023/09/16 10:38:12;;;;;;;10.48;8.27;;;;;;;33.20;nan;97817.41;5017693;28;20045;-69
2023/09/16 10:40:43;;;;;;;11.05;8.45;;;;;;;33.23;nan;97808.47;5020737;28;20059;-68
2023/09/16 10:43:14;;;;;;;12.50;8.93;;;;;;;33.11;nan;97814.06;5016436;28;20110;-68
2023/09/16 10:45:46;;;;;;;9.80;8.63;;;;;;;33.05;nan;97807.28;5017824;28;20049;-68
2023/09/16 10:48:16;;;;;;;13.47;8.83;;;;;;;32.83;nan;97812.34;5020811;28;20163;-68
2023/09/16 10:50:47;;;;;;;11.50;9.45;;;;;;;32.80;nan;97806.75;5021086;28;20296;-68
2023/09/16 10:53:22;;;;;;;13.02;9.15;;;;;;;32.80;nan;97799.34;5017781;28;20605;-68
2023/09/16 10:55:58;;;;;;;11.65;9.23;;;;;;;32.67;nan;97800.63;5018305;28;20076;-68
2023/09/16 10:58:48;;;;;;;11.82;9.85;;;;;;;32.82;nan;97794.28;5013899;28;20477;-68
2023/09/16 11:01:40;;;;;;;10.10;9.10;;;;;;;32.75;nan;97805.09;5017270;28;20142;-69
2023/09/16 11:04:14;;;;;;;13.45;9.80;;;;;;;32.79;nan;97796.97;5018652;28;20041;-68
2023/09/16 11:06:53;;;;;;;12.25;10.90;;;;;;;32.71;nan;97792.47;5023017;28;20042;-67
2023/09/16 11:09:24;;;;;;;12.88;10.02;;;;;;;32.67;nan;97797.88;5023644;28;20056;-69
2023/09/16 11:11:54;;;;;;;12.15;9.60;;;;;;;32.67;nan;97789.66;5022698;28;20041;-68
2023/09/16 11:14:24;;;;;;;11.27;9.85;;;;;;;32.77;nan;97802.81;5020251;28;20052;-69
2023/09/16 11:16:56;;;;;;;13.45;10.32;;;;;;;32.76;nan;97783.94;5014517;28;20489;-67
2023/09/16 11:19:28;;;;;;;14.55;10.80;;;;;;;32.56;nan;97783.13;5022836;28;20064;-67
2023/09/16 11:21:58;;;;;;;11.48;10.23;;;;;;;32.54;nan;97788.16;5023973;28;20049;-68
2023/09/16 11:24:28;;;;;;;14.73;10.90;;;;;;;32.49;nan;97785.69;5020790;28;20156;-69
2023/09/16 11:26:59;;;;;;;11.88;10.68;;;;;;;32.44;nan;97783.25;5024720;28;20050;-68
2023/09/16 11:29:31;;;;;;;13.48;11.70;;;;;;;32.38;nan;97790.16;5018312;28;20499;-67
2023/09/16 11:32:03;;;;;;;13.40;11.10;;;;;;;32.33;nan;97776.72;5019816;28;20231;-68
2023/09/16 11:34:33;;;;;;;12.60;11.30;;;;;;;32.32;nan;97786.09;5003546;28;20045;-67
2023/09/16 11:37:02;;;;;;;17.25;11.43;;;;;;;32.38;nan;97779.19;5020087;28;20639;-69
2023/09/16 11:39:40;;;;;;;17.13;12.77;;;;;;;32.33;nan;97782.22;5020448;28;20428;-67
2023/09/16 11:42:12;;;;;;;14.88;12.85;;;;;;;32.38;nan;97776.44;5019400;28;20083;-67
2023/09/16 11:44:42;;;;;;;15.82;13.18;;;;;;;32.38;nan;97779.19;5004072;28;20136;-67
2023/09/16 11:47:15;;;;;;;13.80;12.27;;;;;;;32.31;nan;97777.06;5001671;28;20050;-67
2023/09/16 11:49:45;;;;;;;15.93;12.30;;;;;;;32.23;nan;97771.78;5021701;28;20081;-68
2023/09/16 11:52:15;;;;;;;15.18;12.38;;;;;;;32.28;nan;97766.03;5021019;28;20049;-68
2023/09/16 11:54:49;;;;;;;14.43;12.40;;;;;;;32.20;nan;97775.25;5023403;28;20385;-68
2023/09/16 11:57:21;;;;;;;13.90;12.40;;;;;;;32.19;nan;97763.50;5022838;28;20195;-67